Carlsbad, NM

8:08 AM MDT on April 18, 2015 (GMT -0600)
KNMCARLS3 | | Change Station
CLOSE
Current Station
Personal Weather Station
Location: Carlsbad, NM
Elevation: 3158 ft
Nearby Weather Stations
Active Advisory: Fire Weather Warning

Elev 3158 ft 32.43 °N, 104.25 °W | Updated 10 seconds ago

Clear
Clear
52.0 °F
Feels Like 52.0 °F
N
0.0
Wind Variable Wind from North
Gusts 2.0 mph

Today
High -- | Low -- °F
--% Chance of Precip.
Yesterday
High -- | Low -- °F
Precip. -- in
6:24 AM 7:28 PM
Waning Crescent, 0% visible
Pressure 29.89 in
Visibility 10.0 miles
Clouds Clear
Dew Point 34 °F
Humidity 51%
Rainfall 0.00 in
Snow Depth Not available.
UV 1 out of 12
Pollen 9.60 out of 12
Air Quality Not available.
Flu Activity Local Activity
METAR KCNM 181353Z AUTO 30008KT 10SM CLR 13/M02 A2998 RMK AO2 SLP120 T01281022 $

More Conditions Fewer Conditions

Pressure 29.89 in
Visibility 10.0 miles
Clouds Clear
Dew Point 34 °F
Humidity 51%
Rainfall 0.00 in
Snow Depth Not available.
UV 1 out of 12
Pollen 9.60 out of 12
Air Quality Not available.
Flu Activity Local Activity
METAR KCNM 181353Z AUTO 30008KT 10SM CLR 13/M02 A2998 RMK AO2 SLP120 T01281022 $

More Conditions Fewer Conditions

10-Day Weather Forecast

Almanac

Astronomy

Apr. 18, 2015 Rise Set
Actual Time
Civil Twilight
Nautical Twilight
Astronomical Twilight
Moon
Length of Visible Light
Length of Day
Tomorrow will be .
, % of the Moon is Illuminated

Today's Extremes

State Highs State Lows

Community

WunderPhotos

Upload Photos

1,814,405 photos uploaded!

WunderBlogs® & News

Nearby

Air Quality

  Air Quality AQ Index Pollutant
Not available.

Snow Depth

Station Depth Elevation

Earthquake Activity

City Distance Mag. Time & Date
Minimum magnitude displayed is 2.5.

Coastal Water Temperatures

Place Temperature

Stations

Nearby Weather Stations

Station Location Temp. Windchill Dew Point Humidity Wind Precip. Elev Updated Type
                   
Fire Weather Warning
Statement as of 3:10 AM MDT on April 18, 2015

... Red flag warning in effect from 11 am this morning to 7 PM MDT
this evening for gusty winds... low humidity... and high to very high
fire danger for the southeast New Mexico plains...

The National Weather Service in Midland/Odessa has issued a red
flag warning... which is in effect from 11 am this morning to 7 PM
MDT this evening. The Fire Weather Watch is no longer in effect.

* Wind... west 15 to 30 mph.

* Humidity... 10 to 15 percent.

* Impacts... any fires that develop will have potential to spread
rapidly. Outdoor burning is not recommended.

* Fire danger high to very high.

Precautionary/preparedness actions...

Avoid the use of open flames or any activities that may generate
Sparks. Accidental ignitions will have the potential to grow
quickly into wind-driven wildfires.